Time;durP1;ratioP1;P1;durP2;ratioP2;P2;SDS_P1;SDS_P2;PMS_P1;PMS_P2;Temp;Humidity;BMP_temperature;BMP_pressure;BME280_temperature;BME280_humidity;BME280_pressure;Samples;Min_cycle;Max_cycle;Signal;HPM_P1;HPM_P2
2021/08/07 00:01:26;;;;;;;5.40;2.70;;;16.90;99.90;;;;;;5062384;28;20949;-73
2021/08/07 00:04:12;;;;;;;3.53;2.67;;;16.90;99.90;;;;;;5060973;28;20611;-73
2021/08/07 00:06:57;;;;;;;3.17;2.00;;;16.90;99.90;;;;;;5060744;28;20435;-73
2021/08/07 00:09:43;;;;;;;7.63;2.20;;;16.80;99.90;;;;;;5075607;28;20801;-73
2021/08/07 00:12:30;;;;;;;5.63;2.23;;;16.90;99.90;;;;;;5064380;28;20444;-73
2021/08/07 00:15:16;;;;;;;3.93;1.73;;;16.90;99.90;;;;;;5070701;28;20428;-73
2021/08/07 00:18:02;;;;;;;1.97;1.53;;;16.90;99.90;;;;;;5061211;28;20416;-73
2021/08/07 00:20:47;;;;;;;10.23;4.87;;;16.90;99.90;;;;;;5070926;28;20422;-73
2021/08/07 00:23:33;;;;;;;14.73;4.20;;;16.90;99.90;;;;;;5069738;28;20431;-73
2021/08/07 00:26:18;;;;;;;9.00;5.70;;;17.00;99.90;;;;;;5068782;28;20464;-73
2021/08/07 00:29:06;;;;;;;14.57;6.90;;;17.00;99.90;;;;;;5064556;28;20389;-73
2021/08/07 00:31:51;;;;;;;6.53;4.60;;;17.00;99.90;;;;;;5069889;28;20477;-73
2021/08/07 00:34:37;;;;;;;4.43;3.13;;;17.00;99.90;;;;;;5076186;28;20836;-73
2021/08/07 00:37:23;;;;;;;8.00;3.33;;;17.00;99.90;;;;;;5073391;28;20503;-73
2021/08/07 00:40:09;;;;;;;5.53;3.43;;;17.00;99.90;;;;;;5076011;28;20436;-73
2021/08/07 00:42:55;;;;;;;7.80;3.93;;;17.10;99.90;;;;;;5075162;28;20840;-73
2021/08/07 00:45:42;;;;;;;9.07;6.10;;;17.00;99.90;;;;;;5073860;28;20566;-73
2021/08/07 00:48:28;;;;;;;7.23;6.33;;;17.00;99.90;;;;;;5073710;28;20591;-73
2021/08/07 00:51:14;;;;;;;11.53;6.27;;;17.00;99.90;;;;;;5076784;28;20511;-73
2021/08/07 00:54:00;;;;;;;6.70;5.00;;;17.00;99.90;;;;;;5075541;28;20566;-73
2021/08/07 00:56:45;;;;;;;5.83;5.10;;;17.00;99.90;;;;;;5069385;28;20457;-73
2021/08/07 00:59:31;;;;;;;10.10;4.57;;;17.00;99.90;;;;;;5073946;28;20424;-73
2021/08/07 01:02:20;;;;;;;5.67;4.00;;;17.00;99.90;;;;;;5075760;28;20423;-73
2021/08/07 01:05:10;;;;;;;4.53;3.90;;;17.00;99.90;;;;;;5070839;28;20933;-73
2021/08/07 01:08:06;;;;;;;4.27;3.30;;;17.00;99.90;;;;;;5076508;28;20814;-73
2021/08/07 01:11:04;;;;;;;4.03;2.40;;;16.90;99.90;;;;;;5076666;28;20845;-73
2021/08/07 01:13:54;;;;;;;9.53;2.73;;;16.70;99.90;;;;;;5077155;28;20850;-73
2021/08/07 01:16:43;;;;;;;4.80;3.30;;;16.70;99.90;;;;;;5071983;28;20597;-73
2021/08/07 01:19:38;;;;;;;7.13;3.60;;;16.70;99.90;;;;;;5076465;28;20822;-73
2021/08/07 01:22:32;;;;;;;6.73;3.00;;;16.60;99.90;;;;;;5073678;28;20512;-73
2021/08/07 01:25:19;;;;;;;6.90;2.90;;;16.40;99.90;;;;;;5059181;28;20553;-73
2021/08/07 01:28:06;;;;;;;6.87;3.70;;;16.40;99.90;;;;;;5069108;28;20420;-73
2021/08/07 01:30:54;;;;;;;7.03;4.00;;;16.60;99.90;;;;;;5068889;28;20919;-73
2021/08/07 01:33:42;;;;;;;6.67;3.47;;;16.50;99.90;;;;;;5075378;28;20428;-73
2021/08/07 01:36:28;;;;;;;6.60;2.77;;;16.50;99.90;;;;;;5076552;28;20826;-73
2021/08/07 01:39:14;;;;;;;6.90;3.30;;;16.50;99.90;;;;;;5074970;28;20537;-73
2021/08/07 01:42:00;;;;;;;7.03;2.90;;;16.30;99.90;;;;;;5075633;28;20527;-73
2021/08/07 01:44:47;;;;;;;6.23;3.30;;;16.40;99.90;;;;;;5069086;28;20478;-73
2021/08/07 01:47:42;;;;;;;5.07;2.87;;;16.30;99.90;;;;;;5068934;28;20422;-73
2021/08/07 01:50:32;;;;;;;3.50;2.13;;;16.40;99.90;;;;;;5070606;28;20790;-73
2021/08/07 01:53:20;;;;;;;5.60;2.00;;;16.30;99.90;;;;;;5065484;28;20442;-73
2021/08/07 01:56:10;;;;;;;7.60;2.33;;;16.30;99.90;;;;;;5069876;28;20507;-73
2021/08/07 01:58:59;;;;;;;2.77;1.70;;;16.30;99.90;;;;;;5061531;28;20970;-73
2021/08/07 02:01:49;;;;;;;6.40;2.20;;;16.30;99.90;;;;;;5072787;28;20611;-73
2021/08/07 02:04:37;;;;;;;2.57;1.47;;;16.30;99.90;;;;;;5072986;28;20492;-73
2021/08/07 02:07:23;;;;;;;3.13;1.63;;;16.30;99.90;;;;;;5064606;28;20439;-73
2021/08/07 02:10:10;;;;;;;5.67;1.97;;;16.30;99.90;;;;;;5061865;28;20444;-73
2021/08/07 02:12:57;;;;;;;4.60;1.53;;;16.20;99.90;;;;;;5072692;28;20460;-73
2021/08/07 02:15:45;;;;;;;6.60;1.97;;;16.20;99.90;;;;;;5063516;28;20497;-73
2021/08/07 02:18:33;;;;;;;4.30;2.00;;;16.10;99.90;;;;;;5072695;28;20473;-73
2021/08/07 02:21:20;;;;;;;3.10;1.37;;;16.00;99.90;;;;;;5067683;28;20441;-73
2021/08/07 02:24:06;;;;;;;3.40;1.20;;;16.00;99.90;;;;;;5061651;28;20450;-73
2021/08/07 02:26:52;;;;;;;3.53;1.50;;;15.90;99.90;;;;;;5064510;28;20567;-73
2021/08/07 02:29:39;;;;;;;8.17;1.40;;;15.90;99.90;;;;;;5070229;28;20419;-73
2021/08/07 02:32:24;;;;;;;4.87;1.53;;;15.90;99.90;;;;;;5072169;28;20447;-73
2021/08/07 02:35:13;;;;;;;5.53;1.87;;;15.90;99.90;;;;;;5057056;28;20540;-73
2021/08/07 02:38:00;;;;;;;5.00;2.03;;;15.80;99.90;;;;;;5063123;28;20957;-73
2021/08/07 02:40:45;;;;;;;5.60;2.17;;;15.80;99.90;;;;;;5076470;28;20583;-73
2021/08/07 02:43:32;;;;;;;6.60;1.60;;;15.70;99.90;;;;;;5071513;28;20428;-73
2021/08/07 02:46:19;;;;;;;2.73;1.33;;;15.60;99.90;;;;;;5070544;28;20522;-73
2021/08/07 02:49:05;;;;;;;3.63;1.90;;;15.60;99.90;;;;;;5065960;28;20492;-73
2021/08/07 02:51:53;;;;;;;2.90;1.50;;;15.60;99.90;;;;;;5071242;28;20990;-73
2021/08/07 02:54:40;;;;;;;5.33;1.70;;;15.70;99.90;;;;;;5070286;28;21025;-73
2021/08/07 02:57:26;;;;;;;2.00;1.50;;;15.70;99.90;;;;;;5072071;28;20401;-73
2021/08/07 03:00:12;;;;;;;3.40;1.70;;;15.70;99.90;;;;;;5064000;28;20523;-73
2021/08/07 03:02:59;;;;;;;6.03;2.00;;;15.80;99.90;;;;;;5065108;28;20432;-73
2021/08/07 03:05:44;;;;;;;2.60;1.90;;;15.90;99.90;;;;;;5068667;28;20451;-73
2021/08/07 03:08:31;;;;;;;3.80;2.10;;;16.00;99.90;;;;;;5064872;28;20556;-73
2021/08/07 03:11:17;;;;;;;4.30;1.80;;;16.00;99.90;;;;;;5070354;28;20452;-73
2021/08/07 03:14:03;;;;;;;4.10;2.10;;;16.00;99.90;;;;;;5065923;28;20470;-73
2021/08/07 03:16:48;;;;;;;6.93;1.80;;;16.10;99.90;;;;;;5069067;28;20434;-73
2021/08/07 03:19:34;;;;;;;5.00;1.57;;;16.10;99.90;;;;;;5070898;28;20503;-73
2021/08/07 03:22:20;;;;;;;4.67;1.27;;;16.10;99.90;;;;;;5070200;28;20396;-73
2021/08/07 03:25:08;;;;;;;5.03;2.00;;;16.10;99.90;;;;;;5061756;28;20473;-73
2021/08/07 03:27:54;;;;;;;5.77;1.87;;;16.20;99.90;;;;;;5073593;22;20471;-74
2021/08/07 03:30:40;;;;;;;4.30;1.63;;;16.30;99.90;;;;;;5063713;28;20429;-74
2021/08/07 03:33:26;;;;;;;4.13;2.10;;;16.40;99.90;;;;;;5062846;28;20796;-73
2021/08/07 03:36:12;;;;;;;3.10;1.83;;;16.30;99.90;;;;;;5071282;28;21163;-74
2021/08/07 03:38:58;;;;;;;3.70;1.87;;;16.30;99.90;;;;;;5053789;28;20964;-74
2021/08/07 03:41:45;;;;;;;7.10;2.00;;;16.20;99.90;;;;;;5052716;28;20802;-73
2021/08/07 03:44:30;;;;;;;5.80;1.90;;;16.20;99.90;;;;;;5057485;28;20580;-73
2021/08/07 03:47:16;;;;;;;3.53;2.17;;;16.30;99.90;;;;;;5059805;28;20976;-73
2021/08/07 03:50:02;;;;;;;3.20;1.60;;;16.20;99.90;;;;;;5052175;28;20969;-74
2021/08/07 03:52:48;;;;;;;7.80;1.63;;;16.20;99.90;;;;;;5048967;28;20470;-74
2021/08/07 03:55:34;;;;;;;2.43;1.30;;;16.20;99.90;;;;;;5057930;28;20454;-74
2021/08/07 03:58:21;;;;;;;7.77;1.37;;;16.20;99.90;;;;;;5060410;28;20445;-74
2021/08/07 04:01:07;;;;;;;3.40;1.50;;;16.30;99.90;;;;;;5058192;28;20519;-74
2021/08/07 04:03:52;;;;;;;3.70;1.67;;;16.30;99.90;;;;;;5063219;28;20422;-73
2021/08/07 04:06:38;;;;;;;4.30;1.83;;;16.40;99.90;;;;;;5058726;28;20419;-73
2021/08/07 04:09:23;;;;;;;5.10;1.80;;;16.40;99.90;;;;;;5037250;28;20550;-73
2021/08/07 04:12:09;;;;;;;3.50;1.57;;;16.40;99.90;;;;;;5050539;28;20440;-73
2021/08/07 04:14:56;;;;;;;3.77;1.57;;;16.40;99.90;;;;;;5043948;28;20453;-74
2021/08/07 04:17:42;;;;;;;4.83;1.97;;;16.50;99.90;;;;;;5060237;28;20510;-74
2021/08/07 04:20:27;;;;;;;2.03;1.30;;;16.50;99.90;;;;;;5064818;28;20478;-74
2021/08/07 04:23:13;;;;;;;2.60;2.27;;;16.50;99.90;;;;;;5053487;28;20450;-74
2021/08/07 04:25:59;;;;;;;2.83;1.70;;;16.40;99.90;;;;;;5052309;28;20934;-74
2021/08/07 04:28:44;;;;;;;4.30;1.63;;;16.40;99.90;;;;;;5058872;28;20452;-73
2021/08/07 04:31:31;;;;;;;3.60;1.53;;;16.30;99.90;;;;;;5059810;28;20918;-73
2021/08/07 04:34:17;;;;;;;3.70;1.60;;;16.30;99.90;;;;;;5059533;28;20428;-73
2021/08/07 04:37:03;;;;;;;2.60;1.80;;;16.30;99.90;;;;;;5060836;28;20440;-73
2021/08/07 04:39:49;;;;;;;2.87;1.60;;;16.30;99.90;;;;;;5058887;28;20470;-73
2021/08/07 04:42:34;;;;;;;3.50;1.83;;;16.20;99.90;;;;;;5060400;28;20571;-73
2021/08/07 04:45:21;;;;;;;4.33;2.03;;;16.30;99.90;;;;;;5048841;28;20420;-73
2021/08/07 04:48:08;;;;;;;4.20;2.13;;;16.20;99.90;;;;;;5058721;28;20541;-73
2021/08/07 04:50:54;;;;;;;3.33;1.97;;;16.30;99.90;;;;;;5055991;28;20573;-73
2021/08/07 04:53:39;;;;;;;3.40;1.93;;;16.40;99.90;;;;;;5035084;28;20440;-73
2021/08/07 04:56:25;;;;;;;7.00;2.30;;;16.40;99.90;;;;;;5044465;28;20441;-73
2021/08/07 04:59:10;;;;;;;8.53;2.00;;;16.40;99.90;;;;;;5053812;28;20473;-73
2021/08/07 05:01:56;;;;;;;7.63;2.30;;;16.40;99.90;;;;;;5062952;28;20806;-73
2021/08/07 05:04:42;;;;;;;2.97;2.03;;;16.40;99.90;;;;;;5057890;28;20422;-73
2021/08/07 05:07:30;;;;;;;2.90;1.87;;;16.40;99.90;;;;;;5051704;28;20503;-73
2021/08/07 05:10:17;;;;;;;6.30;1.90;;;16.40;99.90;;;;;;5056344;28;21029;-73
2021/08/07 05:13:03;;;;;;;7.63;1.50;;;16.50;99.90;;;;;;5059080;28;20468;-73
2021/08/07 05:15:48;;;;;;;2.67;1.63;;;16.60;99.90;;;;;;5061622;28;20437;-73
2021/08/07 05:18:34;;;;;;;3.97;1.47;;;16.60;99.90;;;;;;5058216;28;20448;-73
2021/08/07 05:21:21;;;;;;;4.37;2.00;;;16.70;99.90;;;;;;5052405;28;20932;-73
2021/08/07 05:24:07;;;;;;;6.87;2.23;;;16.60;99.90;;;;;;5056801;28;20425;-73
2021/08/07 05:26:52;;;;;;;6.67;1.73;;;16.70;99.90;;;;;;5034146;28;20468;-73
2021/08/07 05:29:38;;;;;;;4.20;1.67;;;16.80;99.90;;;;;;5062379;28;20429;-73
2021/08/07 05:32:24;;;;;;;8.80;2.10;;;16.70;99.90;;;;;;5063305;28;20447;-73
2021/08/07 05:35:10;;;;;;;2.93;1.77;;;16.70;99.90;;;;;;5062449;28;20466;-73
2021/08/07 05:37:57;;;;;;;6.30;1.73;;;16.70;99.90;;;;;;5054469;28;20551;-73
2021/08/07 05:40:42;;;;;;;2.97;1.80;;;16.80;99.90;;;;;;5062604;28;20423;-73
2021/08/07 05:43:28;;;;;;;4.70;1.90;;;16.90;99.90;;;;;;5066204;28;20440;-73
2021/08/07 05:46:13;;;;;;;8.70;2.07;;;17.00;99.90;;;;;;5056778;28;20914;-73
2021/08/07 05:48:59;;;;;;;3.20;1.70;;;17.10;99.90;;;;;;5068136;28;20591;-74
2021/08/07 05:51:44;;;;;;;12.57;1.90;;;17.10;99.90;;;;;;5063211;28;20454;-73
2021/08/07 05:54:31;;;;;;;3.13;1.80;;;17.10;99.90;;;;;;5055711;28;20453;-72
2021/08/07 05:57:17;;;;;;;2.77;1.70;;;17.10;99.90;;;;;;5073680;28;20424;-73
2021/08/07 06:00:04;;;;;;;4.07;1.90;;;17.10;99.90;;;;;;5054893;28;20500;-73
2021/08/07 06:02:49;;;;;;;3.00;1.63;;;16.90;99.90;;;;;;5061504;28;20555;-73
2021/08/07 06:05:35;;;;;;;3.87;1.67;;;17.00;99.90;;;;;;5067566;28;20420;-73
2021/08/07 06:08:21;;;;;;;4.17;1.80;;;17.00;99.90;;;;;;5053186;28;20535;-73
2021/08/07 06:11:08;;;;;;;4.03;2.23;;;17.10;99.90;;;;;;5055478;28;20418;-73
2021/08/07 06:13:53;;;;;;;6.17;2.70;;;17.20;99.90;;;;;;5060864;28;20445;-73
2021/08/07 06:16:39;;;;;;;2.60;1.80;;;17.30;99.90;;;;;;5068033;28;20404;-73
2021/08/07 06:19:24;;;;;;;3.60;1.50;;;17.40;99.90;;;;;;5059227;28;20924;-73
2021/08/07 06:22:10;;;;;;;5.13;1.67;;;17.30;99.90;;;;;;5048657;28;20425;-73
2021/08/07 06:24:56;;;;;;;3.40;1.80;;;17.40;99.90;;;;;;5052192;28;20512;-73
2021/08/07 06:27:43;;;;;;;2.97;1.30;;;17.50;99.90;;;;;;5064101;28;20477;-74
2021/08/07 06:30:28;;;;;;;4.63;1.90;;;17.60;99.90;;;;;;5056838;28;20512;-73
2021/08/07 06:33:14;;;;;;;4.77;1.77;;;17.60;99.90;;;;;;5060271;28;20560;-73
2021/08/07 06:36:00;;;;;;;5.40;1.60;;;17.70;99.90;;;;;;5045799;28;20417;-73
2021/08/07 06:38:46;;;;;;;4.60;1.40;;;17.90;99.90;;;;;;5062668;28;20953;-73
2021/08/07 06:41:32;;;;;;;2.23;0.93;;;18.00;99.90;;;;;;5058579;28;20392;-73
2021/08/07 06:44:19;;;;;;;3.20;1.17;;;18.10;99.90;;;;;;5057102;28;20469;-73
2021/08/07 06:47:05;;;;;;;2.87;1.47;;;18.20;99.90;;;;;;5048564;28;20420;-73
2021/08/07 06:49:51;;;;;;;9.53;1.67;;;18.30;99.90;;;;;;5052129;28;20463;-73
2021/08/07 06:52:37;;;;;;;11.80;1.63;;;18.30;99.90;;;;;;5060151;28;20456;-73
2021/08/07 06:55:22;;;;;;;3.40;1.40;;;18.40;99.90;;;;;;5068128;28;20495;-73
2021/08/07 06:58:08;;;;;;;5.57;1.57;;;18.50;99.90;;;;;;5057800;28;20465;-74
2021/08/07 07:00:55;;;;;;;6.07;1.70;;;18.50;99.90;;;;;;5046802;28;20649;-73
2021/08/07 07:03:40;;;;;;;1.83;1.20;;;18.60;99.90;;;;;;5064211;28;20421;-73
2021/08/07 07:06:26;;;;;;;4.60;1.60;;;18.60;99.90;;;;;;5053817;28;20982;-73
2021/08/07 07:09:12;;;;;;;4.30;1.50;;;18.70;99.90;;;;;;5061837;28;20453;-73
2021/08/07 07:11:58;;;;;;;5.37;1.47;;;18.80;99.90;;;;;;5051979;28;20399;-74
2021/08/07 07:14:43;;;;;;;3.47;1.80;;;18.80;99.90;;;;;;5054877;28;20420;-73
2021/08/07 07:17:30;;;;;;;3.33;1.27;;;18.90;99.90;;;;;;5061830;28;20806;-73
2021/08/07 07:20:17;;;;;;;3.83;1.20;;;18.90;99.90;;;;;;5061658;28;20459;-74
2021/08/07 07:23:03;;;;;;;4.33;1.47;;;19.00;99.90;;;;;;5064651;28;20420;-73
2021/08/07 07:25:49;;;;;;;6.77;1.43;;;19.00;99.90;;;;;;5063476;28;20393;-73
2021/08/07 07:28:34;;;;;;;4.30;1.50;;;19.00;99.90;;;;;;5057824;28;20448;-73
2021/08/07 07:31:20;;;;;;;1.73;1.23;;;19.20;99.90;;;;;;5057068;28;20455;-73
2021/08/07 07:34:07;;;;;;;3.80;1.53;;;19.20;99.90;;;;;;5059669;28;20426;-74
2021/08/07 07:36:52;;;;;;;3.03;1.40;;;19.30;99.90;;;;;;5047392;28;20920;-74
2021/08/07 07:39:38;;;;;;;2.90;1.23;;;19.30;99.90;;;;;;5063279;28;20569;-73
2021/08/07 07:42:23;;;;;;;3.53;1.37;;;19.30;99.90;;;;;;5045308;28;20417;-73
2021/08/07 07:45:10;;;;;;;3.13;1.33;;;19.40;99.90;;;;;;5031794;28;20762;-73
2021/08/07 07:47:55;;;;;;;6.20;1.20;;;19.40;99.90;;;;;;5059746;28;20590;-73
2021/08/07 07:50:42;;;;;;;2.23;1.20;;;19.50;99.90;;;;;;5063387;28;20796;-73
2021/08/07 07:53:28;;;;;;;3.80;1.70;;;19.60;99.90;;;;;;5063175;28;20523;-74
2021/08/07 07:56:14;;;;;;;2.87;1.43;;;19.60;99.90;;;;;;5059993;28;20946;-73
2021/08/07 07:58:59;;;;;;;7.30;2.03;;;19.80;99.90;;;;;;5043867;28;20463;-73
2021/08/07 08:01:45;;;;;;;5.63;1.80;;;19.80;99.90;;;;;;5059686;28;20864;-73
2021/08/07 08:04:32;;;;;;;3.57;1.40;;;19.90;99.90;;;;;;5056193;28;20454;-73
2021/08/07 08:07:19;;;;;;;2.97;1.30;;;20.00;99.90;;;;;;5053321;28;20530;-73
2021/08/07 08:10:05;;;;;;;2.80;1.27;;;20.10;99.90;;;;;;5057837;28;20421;-73
2021/08/07 08:12:51;;;;;;;6.63;2.00;;;20.10;99.90;;;;;;5063241;28;20553;-73
2021/08/07 08:15:39;;;;;;;4.53;1.57;;;20.10;99.90;;;;;;5057306;28;20454;-73
2021/08/07 08:18:25;;;;;;;4.60;1.37;;;20.20;99.90;;;;;;5058226;28;20475;-73
2021/08/07 08:21:11;;;;;;;7.30;1.90;;;20.10;99.90;;;;;;5055279;28;20514;-73
2021/08/07 08:23:58;;;;;;;3.40;1.50;;;20.10;99.90;;;;;;5051432;28;20781;-72
2021/08/07 08:26:44;;;;;;;4.17;1.67;;;20.20;99.90;;;;;;5058398;28;20450;-73
2021/08/07 08:29:29;;;;;;;5.80;1.60;;;20.30;99.90;;;;;;5060782;28;20421;-73
2021/08/07 08:32:15;;;;;;;2.50;1.40;;;20.40;99.90;;;;;;5065958;28;20412;-73
2021/08/07 08:35:01;;;;;;;4.80;1.70;;;20.40;99.90;;;;;;5056044;28;20466;-73
2021/08/07 08:37:47;;;;;;;3.23;1.37;;;20.30;99.90;;;;;;5060153;28;20540;-73
2021/08/07 08:40:33;;;;;;;3.40;1.40;;;20.40;99.90;;;;;;5060042;28;20946;-73
2021/08/07 08:43:19;;;;;;;6.93;1.50;;;20.60;99.90;;;;;;5053659;28;20920;-73
2021/08/07 08:46:05;;;;;;;7.27;1.70;;;20.60;99.90;;;;;;5036104;28;20444;-74
2021/08/07 08:48:50;;;;;;;5.97;1.50;;;20.50;99.90;;;;;;5055506;28;20525;-75
2021/08/07 08:51:37;;;;;;;3.33;1.50;;;20.50;99.90;;;;;;5052858;28;20406;-75
2021/08/07 08:54:23;;;;;;;2.80;1.10;;;20.40;99.90;;;;;;5052292;28;20471;-75
2021/08/07 08:57:10;;;;;;;5.67;1.43;;;20.50;99.90;;;;;;5054234;28;20507;-75
2021/08/07 08:59:56;;;;;;;3.57;1.33;;;20.50;99.90;;;;;;5042306;28;21049;-74
2021/08/07 09:02:42;;;;;;;3.90;1.47;;;20.50;99.90;;;;;;5052663;28;20478;-74
2021/08/07 09:05:28;;;;;;;6.50;1.63;;;20.60;99.90;;;;;;5064774;28;20834;-75
2021/08/07 09:08:16;;;;;;;3.50;1.40;;;20.80;99.90;;;;;;5062423;28;20999;-75
2021/08/07 09:11:21;;;;;;;4.90;1.47;;;20.90;99.90;;;;;;5054090;28;21055;-74
2021/08/07 09:14:21;;;;;;;3.67;2.07;;;21.20;99.90;;;;;;5052970;28;20476;-74
2021/08/07 09:17:14;;;;;;;8.97;3.17;;;21.50;99.90;;;;;;5056291;28;20421;-74
2021/08/07 09:20:01;;;;;;;4.80;2.20;;;21.50;99.90;;;;;;5060905;28;20413;-74
2021/08/07 09:22:46;;;;;;;6.80;3.07;;;21.70;99.90;;;;;;5074749;28;20550;-74
2021/08/07 09:25:35;;;;;;;4.93;1.53;;;21.50;99.90;;;;;;5073785;28;20418;-74
2021/08/07 09:28:21;;;;;;;7.00;1.43;;;21.50;99.90;;;;;;5074557;28;20451;-73
2021/08/07 09:31:08;;;;;;;6.27;1.67;;;21.50;99.90;;;;;;5074185;28;20398;-73
2021/08/07 09:34:17;;;;;;;4.90;1.40;;;21.50;99.90;;;;;;5034083;28;20460;-73
2021/08/07 09:37:02;;;;;;;6.23;1.70;;;21.50;98.60;;;;;;5034176;28;20386;-73
2021/08/07 09:39:49;;;;;;;4.97;1.00;;;21.40;99.50;;;;;;5049674;28;20421;-73
2021/08/07 09:42:49;;;;;;;7.47;3.70;;;21.50;99.90;;;;;;5065517;28;20412;-73
2021/08/07 09:45:34;;;;;;;5.63;1.50;;;21.80;99.90;;;;;;5054679;28;20436;-73
2021/08/07 09:48:29;;;;;;;3.57;1.53;;;21.80;97.90;;;;;;5053740;28;21043;-73
2021/08/07 09:51:20;;;;;;;4.33;1.70;;;22.00;99.60;;;;;;5037041;28;20471;-73
2021/08/07 09:54:09;;;;;;;3.57;1.30;;;22.00;92.80;;;;;;5054446;28;21048;-73
2021/08/07 09:56:57;;;;;;;4.07;1.30;;;22.00;95.20;;;;;;5051414;28;20935;-73
2021/08/07 09:59:48;;;;;;;4.93;1.50;;;22.10;95.90;;;;;;5045178;28;20614;-72
2021/08/07 10:02:37;;;;;;;6.90;1.60;;;22.10;92.00;;;;;;5041577;28;20514;-72
2021/08/07 10:05:27;;;;;;;3.93;1.33;;;22.10;92.70;;;;;;5039966;28;20431;-72
2021/08/07 10:08:13;;;;;;;8.90;1.33;;;22.20;93.00;;;;;;5053582;28;20463;-72
2021/08/07 10:11:11;;;;;;;3.87;1.53;;;22.30;95.80;;;;;;5052369;28;20412;-72
2021/08/07 10:13:57;;;;;;;4.83;1.67;;;22.40;96.30;;;;;;5039159;28;20445;-72
2021/08/07 10:16:43;;;;;;;3.40;1.77;;;22.50;97.20;;;;;;5043391;28;20464;-72
2021/08/07 10:19:29;;;;;;;3.67;1.30;;;22.30;93.10;;;;;;5042851;28;20475;-72
2021/08/07 10:22:17;;;;;;;3.83;1.40;;;22.20;92.90;;;;;;5039194;28;20468;-72
2021/08/07 10:25:06;;;;;;;3.27;1.50;;;22.00;93.40;;;;;;5051281;28;20801;-72
2021/08/07 10:27:57;;;;;;;4.50;1.47;;;21.90;95.40;;;;;;5040367;28;20449;-72
2021/08/07 10:30:45;;;;;;;4.00;1.53;;;21.90;96.10;;;;;;5049718;28;20452;-72
2021/08/07 10:33:32;;;;;;;2.70;1.47;;;21.90;97.80;;;;;;5047644;28;20603;-72
2021/08/07 10:36:18;;;;;;;4.50;1.40;;;21.80;97.10;;;;;;5038914;28;20490;-72
2021/08/07 10:39:08;;;;;;;3.17;1.60;;;21.70;96.50;;;;;;5044461;28;20492;-72
2021/08/07 10:41:54;;;;;;;5.23;1.70;;;21.70;97.30;;;;;;5045722;28;20448;-72
2021/08/07 10:44:44;;;;;;;3.93;1.90;;;21.70;99.00;;;;;;5051140;28;20582;-72
2021/08/07 10:47:37;;;;;;;6.07;2.17;;;21.80;99.90;;;;;;5044196;28;20481;-72
2021/08/07 10:50:39;;;;;;;5.20;1.97;;;21.90;99.40;;;;;;5044036;28;20437;-72
2021/08/07 10:53:39;;;;;;;4.97;1.70;;;21.80;99.00;;;;;;5040425;28;20448;-72
2021/08/07 10:56:35;;;;;;;6.00;1.60;;;21.90;99.10;;;;;;5050400;28;20432;-72
2021/08/07 10:59:25;;;;;;;3.73;1.63;;;21.80;98.50;;;;;;5039585;28;20513;-72
2021/08/07 11:02:23;;;;;;;4.93;1.60;;;21.80;98.90;;;;;;5039644;28;20471;-72
2021/08/07 11:05:10;;;;;;;5.60;1.63;;;21.60;99.20;;;;;;5035895;28;20513;-72
2021/08/07 11:08:20;;;;;;;3.03;1.60;;;21.60;99.90;;;;;;5041687;28;20466;-72
2021/08/07 11:11:27;;;;;;;6.33;1.73;;;21.50;99.90;;;;;;5046483;28;20974;-72
2021/08/07 11:14:47;;;;;;;7.70;1.90;;;21.50;99.90;;;;;;5044840;28;20464;-72
2021/08/07 11:17:35;;;;;;;5.83;1.90;;;21.60;99.90;;;;;;5043599;28;20474;-72
2021/08/07 11:20:43;;;;;;;3.00;1.47;;;21.80;99.90;;;;;;5051523;28;20455;-72
2021/08/07 11:23:37;;;;;;;4.07;1.60;;;21.80;99.90;;;;;;5049637;28;20588;-72
2021/08/07 11:26:48;;;;;;;5.33;1.63;;;21.70;99.90;;;;;;5047568;28;20529;-72
2021/08/07 11:29:33;;;;;;;7.57;1.93;;;21.70;99.90;;;;;;5083430;27;20600;-73
2021/08/07 11:32:19;;;;;;;3.37;1.10;;;21.70;99.90;;;;;;5075342;28;21075;-73
2021/08/07 11:35:05;;;;;;;3.50;1.63;;;21.70;99.90;;;;;;5072123;28;20468;-73
2021/08/07 11:38:13;;;;;;;5.30;1.60;;;21.50;99.90;;;;;;5080909;28;20456;-72
2021/08/07 11:41:00;;;;;;;5.43;1.90;;;21.50;99.90;;;;;;5082967;28;20457;-73
2021/08/07 11:43:51;;;;;;;5.10;1.63;;;21.50;99.90;;;;;;5081330;28;20440;-72
2021/08/07 11:46:44;;;;;;;4.87;1.60;;;21.50;99.90;;;;;;5077684;28;20445;-73
2021/08/07 11:49:32;;;;;;;3.20;1.50;;;21.50;99.90;;;;;;5078128;28;20619;-73
2021/08/07 11:52:18;;;;;;;3.27;1.50;;;21.50;99.90;;;;;;5076192;28;20426;-72
2021/08/07 11:55:04;;;;;;;8.30;2.00;;;21.60;99.90;;;;;;5073776;28;20500;-73
2021/08/07 11:58:04;;;;;;;3.03;1.30;;;21.60;99.90;;;;;;5072985;28;20496;-73
2021/08/07 12:00:50;;;;;;;5.27;1.53;;;21.60;99.90;;;;;;5069988;28;20583;-72
2021/08/07 12:03:41;;;;;;;5.20;1.50;;;21.70;99.90;;;;;;5075579;28;20592;-72
2021/08/07 12:06:32;;;;;;;4.27;1.40;;;21.60;99.90;;;;;;5074521;28;20762;-73
2021/08/07 12:09:18;;;;;;;5.53;1.70;;;21.70;99.90;;;;;;5081781;28;20479;-73
2021/08/07 12:12:05;;;;;;;3.57;1.70;;;21.70;99.90;;;;;;5071020;28;20496;-73
2021/08/07 12:14:51;;;;;;;5.30;1.80;;;21.60;99.90;;;;;;5070607;28;20427;-72
2021/08/07 12:17:45;;;;;;;5.60;1.80;;;21.50;99.90;;;;;;5069759;28;20439;-72
2021/08/07 12:20:32;;;;;;;4.40;1.70;;;21.50;99.90;;;;;;5073002;28;20418;-73
2021/08/07 12:23:18;;;;;;;4.10;1.40;;;21.50;99.90;;;;;;5075619;28;20551;-73
2021/08/07 12:26:04;;;;;;;6.60;2.23;;;21.50;99.90;;;;;;5068596;28;20488;-73
2021/08/07 12:28:57;;;;;;;3.97;1.70;;;21.30;99.90;;;;;;5072662;28;20493;-73
2021/08/07 12:31:46;;;;;;;5.10;2.00;;;21.40;99.90;;;;;;5075485;28;20438;-72
2021/08/07 12:34:33;;;;;;;5.47;2.90;;;21.30;99.90;;;;;;5076694;28;20468;-72
2021/08/07 12:37:20;;;;;;;6.20;2.80;;;21.20;99.90;;;;;;5072512;28;20482;-72
2021/08/07 12:40:07;;;;;;;4.97;3.23;;;21.20;99.90;;;;;;5063912;28;20442;-72
2021/08/07 12:42:52;;;;;;;3.83;2.40;;;21.20;99.90;;;;;;5057932;28;20436;-72
2021/08/07 12:45:38;;;;;;;6.23;2.70;;;21.20;99.90;;;;;;5057745;28;20515;-73
2021/08/07 12:48:24;;;;;;;7.73;2.20;;;21.30;99.90;;;;;;5063639;28;20480;-73
2021/08/07 12:51:09;;;;;;;3.33;1.70;;;21.30;99.90;;;;;;5067266;28;20443;-73
2021/08/07 12:53:58;;;;;;;4.77;1.93;;;21.30;99.90;;;;;;5073957;28;20428;-73
2021/08/07 12:56:47;;;;;;;3.53;1.83;;;21.30;99.90;;;;;;5060172;28;20439;-72
2021/08/07 12:59:48;;;;;;;3.00;1.83;;;21.30;99.90;;;;;;5059355;28;20543;-73
2021/08/07 13:02:34;;;;;;;3.53;1.77;;;21.30;99.90;;;;;;5053040;28;20653;-73
2021/08/07 13:05:32;;;;;;;3.33;1.50;;;21.20;99.90;;;;;;5060048;28;20775;-73
2021/08/07 13:08:25;;;;;;;5.13;1.70;;;21.10;99.90;;;;;;5052328;28;20569;-73
2021/08/07 13:11:15;;;;;;;4.93;2.23;;;21.10;99.90;;;;;;5075340;28;20492;-73
2021/08/07 13:14:01;;;;;;;6.67;3.60;;;21.10;99.90;;;;;;5054872;28;20433;-72
2021/08/07 13:16:48;;;;;;;4.10;1.80;;;21.10;99.90;;;;;;5051205;28;20492;-72
2021/08/07 13:19:35;;;;;;;4.73;1.50;;;21.00;99.90;;;;;;5056836;28;20513;-73
2021/08/07 13:22:21;;;;;;;4.93;1.60;;;20.90;99.90;;;;;;5057626;28;21121;-72
2021/08/07 13:25:08;;;;;;;5.03;2.00;;;20.90;99.90;;;;;;5055318;28;20512;-72
2021/08/07 13:27:56;;;;;;;4.43;2.07;;;20.80;99.90;;;;;;5058704;28;20466;-73
2021/08/07 13:30:47;;;;;;;7.20;2.10;;;20.90;99.90;;;;;;5052846;28;20396;-73
2021/08/07 13:33:34;;;;;;;3.73;1.83;;;20.90;99.90;;;;;;5054349;28;20509;-72
2021/08/07 13:36:20;;;;;;;4.20;1.73;;;21.00;99.90;;;;;;5063446;28;20934;-72
2021/08/07 13:39:06;;;;;;;4.73;2.07;;;21.00;99.90;;;;;;5058338;28;20461;-73
2021/08/07 13:41:52;;;;;;;4.03;2.27;;;20.90;99.90;;;;;;5062507;28;20414;-72
2021/08/07 13:44:39;;;;;;;6.70;1.90;;;20.90;99.90;;;;;;5057130;28;20438;-72
2021/08/07 13:47:24;;;;;;;3.57;1.77;;;20.90;99.90;;;;;;5067721;28;20971;-72
2021/08/07 13:50:12;;;;;;;3.87;2.63;;;20.90;99.90;;;;;;5065818;28;20458;-72
2021/08/07 13:52:58;;;;;;;6.83;2.83;;;20.90;99.90;;;;;;5055137;28;20819;-72
2021/08/07 13:55:43;;;;;;;4.33;2.23;;;20.80;99.90;;;;;;5052308;28;20424;-72
2021/08/07 13:58:29;;;;;;;6.40;3.07;;;20.70;99.90;;;;;;5052582;28;20466;-72
2021/08/07 14:01:16;;;;;;;12.77;2.50;;;20.60;99.90;;;;;;5052356;28;20421;-72
2021/08/07 14:04:01;;;;;;;7.07;2.60;;;20.50;99.90;;;;;;5052180;28;20784;-72
2021/08/07 14:06:47;;;;;;;5.20;2.53;;;20.40;99.90;;;;;;5058181;28;20925;-72
2021/08/07 14:09:33;;;;;;;6.43;2.33;;;20.40;99.90;;;;;;5059886;28;20848;-73
2021/08/07 14:12:19;;;;;;;6.10;2.63;;;20.30;99.90;;;;;;5071961;28;20482;-72
2021/08/07 14:15:06;;;;;;;4.50;2.80;;;20.20;99.90;;;;;;5062717;28;20839;-72
2021/08/07 14:17:53;;;;;;;7.83;2.80;;;20.10;99.90;;;;;;5052474;28;20944;-72
2021/08/07 14:20:39;;;;;;;9.93;3.37;;;20.00;99.90;;;;;;5052117;28;20412;-72
2021/08/07 14:23:24;;;;;;;5.70;2.37;;;20.00;99.90;;;;;;5056484;28;20524;-72
2021/08/07 14:26:10;;;;;;;6.70;2.97;;;20.00;99.90;;;;;;5051637;28;20468;-72
2021/08/07 14:28:56;;;;;;;8.13;2.47;;;20.00;99.90;;;;;;5055812;28;21006;-72
2021/08/07 14:31:42;;;;;;;6.90;2.83;;;20.10;99.90;;;;;;5059669;28;20474;-72